sensor_id;sensor_type;location;lat;lon;timestamp;P1;durP1;ratioP1;P2;durP2;ratioP2
26014;SDS011;13793;55.388;37.844;2022-09-27T00:02:02;15.90;;;9.60;;
26014;SDS011;13793;55.388;37.844;2022-09-27T00:04:32;15.83;;;10.33;;
26014;SDS011;13793;55.388;37.844;2022-09-27T00:07:03;15.10;;;10.83;;
26014;SDS011;13793;55.388;37.844;2022-09-27T00:09:34;13.97;;;8.80;;
26014;SDS011;13793;55.388;37.844;2022-09-27T00:12:05;13.50;;;9.33;;
26014;SDS011;13793;55.388;37.844;2022-09-27T00:14:38;13.13;;;8.90;;
26014;SDS011;13793;55.388;37.844;2022-09-27T00:17:09;12.33;;;8.50;;
26014;SDS011;13793;55.388;37.844;2022-09-27T00:19:40;14.40;;;8.77;;
26014;SDS011;13793;55.388;37.844;2022-09-27T00:22:11;15.40;;;8.33;;
26014;SDS011;13793;55.388;37.844;2022-09-27T00:24:42;14.53;;;8.00;;
26014;SDS011;13793;55.388;37.844;2022-09-27T00:27:13;12.20;;;8.37;;
26014;SDS011;13793;55.388;37.844;2022-09-27T00:29:43;14.50;;;7.60;;
26014;SDS011;13793;55.388;37.844;2022-09-27T00:32:15;11.03;;;7.77;;
26014;SDS011;13793;55.388;37.844;2022-09-27T00:34:45;10.17;;;7.73;;
26014;SDS011;13793;55.388;37.844;2022-09-27T00:37:15;12.70;;;7.60;;
26014;SDS011;13793;55.388;37.844;2022-09-27T00:39:46;11.80;;;8.53;;
26014;SDS011;13793;55.388;37.844;2022-09-27T00:42:16;13.83;;;9.17;;
26014;SDS011;13793;55.388;37.844;2022-09-27T00:45:01;14.17;;;8.30;;
26014;SDS011;13793;55.388;37.844;2022-09-27T00:47:34;11.97;;;8.00;;
26014;SDS011;13793;55.388;37.844;2022-09-27T00:53:11;13.17;;;7.60;;
26014;SDS011;13793;55.388;37.844;2022-09-27T00:55:48;11.63;;;7.67;;
26014;SDS011;13793;55.388;37.844;2022-09-27T00:58:28;12.57;;;7.93;;
26014;SDS011;13793;55.388;37.844;2022-09-27T01:01:01;12.43;;;7.57;;
26014;SDS011;13793;55.388;37.844;2022-09-27T01:03:36;10.50;;;7.90;;
26014;SDS011;13793;55.388;37.844;2022-09-27T01:06:13;14.50;;;9.00;;
26014;SDS011;13793;55.388;37.844;2022-09-27T01:08:44;10.07;;;7.80;;
26014;SDS011;13793;55.388;37.844;2022-09-27T01:11:27;9.83;;;7.37;;
26014;SDS011;13793;55.388;37.844;2022-09-27T01:19:37;12.70;;;8.47;;
26014;SDS011;13793;55.388;37.844;2022-09-27T01:22:25;10.73;;;7.27;;
26014;SDS011;13793;55.388;37.844;2022-09-27T01:25:08;12.60;;;7.63;;
26014;SDS011;13793;55.388;37.844;2022-09-27T01:30:43;9.33;;;6.57;;
26014;SDS011;13793;55.388;37.844;2022-09-27T01:33:26;12.93;;;7.47;;
26014;SDS011;13793;55.388;37.844;2022-09-27T01:38:56;10.87;;;7.57;;
26014;SDS011;13793;55.388;37.844;2022-09-27T01:47:04;10.83;;;6.80;;
26014;SDS011;13793;55.388;37.844;2022-09-27T01:49:47;11.27;;;6.70;;
26014;SDS011;13793;55.388;37.844;2022-09-27T01:52:19;13.17;;;8.00;;
26014;SDS011;13793;55.388;37.844;2022-09-27T01:54:52;11.73;;;7.23;;
26014;SDS011;13793;55.388;37.844;2022-09-27T01:57:31;11.60;;;6.90;;
26014;SDS011;13793;55.388;37.844;2022-09-27T02:00:07;12.57;;;8.20;;
26014;SDS011;13793;55.388;37.844;2022-09-27T02:02:46;16.60;;;9.10;;
26014;SDS011;13793;55.388;37.844;2022-09-27T02:05:39;19.70;;;8.37;;
26014;SDS011;13793;55.388;37.844;2022-09-27T02:08:32;39.47;;;8.87;;
26014;SDS011;13793;55.388;37.844;2022-09-27T02:11:03;51.10;;;10.13;;
26014;SDS011;13793;55.388;37.844;2022-09-27T02:27:39;26.30;;;10.13;;
26014;SDS011;13793;55.388;37.844;2022-09-27T02:30:09;26.87;;;10.97;;
26014;SDS011;13793;55.388;37.844;2022-09-27T02:32:41;44.37;;;11.50;;
26014;SDS011;13793;55.388;37.844;2022-09-27T02:35:14;42.23;;;12.50;;
26014;SDS011;13793;55.388;37.844;2022-09-27T02:37:46;38.50;;;14.17;;
26014;SDS011;13793;55.388;37.844;2022-09-27T02:40:17;35.43;;;13.07;;
26014;SDS011;13793;55.388;37.844;2022-09-27T02:42:48;40.17;;;14.93;;
26014;SDS011;13793;55.388;37.844;2022-09-27T02:45:18;47.20;;;16.33;;
26014;SDS011;13793;55.388;37.844;2022-09-27T02:51:08;40.53;;;14.30;;
26014;SDS011;13793;55.388;37.844;2022-09-27T02:56:34;34.00;;;12.13;;
26014;SDS011;13793;55.388;37.844;2022-09-27T03:02:18;19.83;;;11.50;;
26014;SDS011;13793;55.388;37.844;2022-09-27T03:05:24;19.60;;;11.60;;
26014;SDS011;13793;55.388;37.844;2022-09-27T03:07:57;19.97;;;11.23;;
26014;SDS011;13793;55.388;37.844;2022-09-27T03:10:29;17.57;;;10.40;;
26014;SDS011;13793;55.388;37.844;2022-09-27T03:12:59;16.33;;;10.47;;
26014;SDS011;13793;55.388;37.844;2022-09-27T03:15:32;21.07;;;11.90;;
26014;SDS011;13793;55.388;37.844;2022-09-27T03:18:05;17.13;;;9.97;;
26014;SDS011;13793;55.388;37.844;2022-09-27T03:20:43;19.90;;;11.33;;
26014;SDS011;13793;55.388;37.844;2022-09-27T03:23:15;30.50;;;11.50;;
26014;SDS011;13793;55.388;37.844;2022-09-27T03:25:46;31.03;;;12.20;;
26014;SDS011;13793;55.388;37.844;2022-09-27T03:28:20;35.43;;;12.13;;
26014;SDS011;13793;55.388;37.844;2022-09-27T03:30:52;29.97;;;13.17;;
26014;SDS011;13793;55.388;37.844;2022-09-27T03:33:24;25.37;;;12.43;;
26014;SDS011;13793;55.388;37.844;2022-09-27T03:35:57;40.77;;;14.07;;
26014;SDS011;13793;55.388;37.844;2022-09-27T03:38:27;27.30;;;12.40;;
26014;SDS011;13793;55.388;37.844;2022-09-27T03:41:00;24.23;;;12.40;;
26014;SDS011;13793;55.388;37.844;2022-09-27T03:43:31;23.03;;;12.90;;
26014;SDS011;13793;55.388;37.844;2022-09-27T03:46:04;25.97;;;13.37;;
26014;SDS011;13793;55.388;37.844;2022-09-27T03:48:35;29.00;;;13.87;;
26014;SDS011;13793;55.388;37.844;2022-09-27T03:51:07;33.63;;;13.17;;
26014;SDS011;13793;55.388;37.844;2022-09-27T03:53:39;22.87;;;12.03;;
26014;SDS011;13793;55.388;37.844;2022-09-27T03:56:10;21.37;;;12.63;;
26014;SDS011;13793;55.388;37.844;2022-09-27T03:58:41;18.33;;;11.63;;
26014;SDS011;13793;55.388;37.844;2022-09-27T04:01:12;18.77;;;11.23;;
26014;SDS011;13793;55.388;37.844;2022-09-27T04:03:44;19.67;;;11.00;;
26014;SDS011;13793;55.388;37.844;2022-09-27T04:06:16;19.33;;;11.57;;
26014;SDS011;13793;55.388;37.844;2022-09-27T04:08:47;20.10;;;11.47;;
26014;SDS011;13793;55.388;37.844;2022-09-27T04:11:19;25.97;;;13.97;;
26014;SDS011;13793;55.388;37.844;2022-09-27T04:13:52;38.73;;;20.27;;
26014;SDS011;13793;55.388;37.844;2022-09-27T04:16:24;28.23;;;15.60;;
26014;SDS011;13793;55.388;37.844;2022-09-27T04:18:56;23.60;;;11.57;;
26014;SDS011;13793;55.388;37.844;2022-09-27T04:21:41;17.47;;;8.63;;
26014;SDS011;13793;55.388;37.844;2022-09-27T04:24:12;17.30;;;7.37;;
26014;SDS011;13793;55.388;37.844;2022-09-27T04:26:44;15.10;;;7.60;;
26014;SDS011;13793;55.388;37.844;2022-09-27T04:29:18;19.90;;;6.27;;
26014;SDS011;13793;55.388;37.844;2022-09-27T04:31:51;19.40;;;7.30;;
26014;SDS011;13793;55.388;37.844;2022-09-27T04:34:26;16.27;;;7.23;;
26014;SDS011;13793;55.388;37.844;2022-09-27T04:37:16;11.77;;;7.50;;
26014;SDS011;13793;55.388;37.844;2022-09-27T04:39:49;14.63;;;7.57;;
26014;SDS011;13793;55.388;37.844;2022-09-27T04:42:19;11.33;;;6.90;;
26014;SDS011;13793;55.388;37.844;2022-09-27T04:44:50;13.00;;;6.47;;
26014;SDS011;13793;55.388;37.844;2022-09-27T04:47:21;21.70;;;7.53;;
26014;SDS011;13793;55.388;37.844;2022-09-27T04:49:52;14.33;;;6.10;;
26014;SDS011;13793;55.388;37.844;2022-09-27T04:52:23;24.20;;;6.20;;
26014;SDS011;13793;55.388;37.844;2022-09-27T04:54:53;27.07;;;10.10;;
26014;SDS011;13793;55.388;37.844;2022-09-27T04:57:24;19.27;;;10.23;;
26014;SDS011;13793;55.388;37.844;2022-09-27T04:59:55;23.57;;;6.23;;
26014;SDS011;13793;55.388;37.844;2022-09-27T05:02:27;33.47;;;6.73;;
26014;SDS011;13793;55.388;37.844;2022-09-27T05:05:03;46.27;;;7.53;;
26014;SDS011;13793;55.388;37.844;2022-09-27T05:07:36;13.07;;;6.00;;
26014;SDS011;13793;55.388;37.844;2022-09-27T05:10:09;9.63;;;5.93;;
26014;SDS011;13793;55.388;37.844;2022-09-27T05:12:39;16.43;;;5.63;;
26014;SDS011;13793;55.388;37.844;2022-09-27T05:15:11;50.10;;;6.63;;
26014;SDS011;13793;55.388;37.844;2022-09-27T05:18:00;51.00;;;5.63;;
26014;SDS011;13793;55.388;37.844;2022-09-27T05:20:42;26.50;;;5.43;;
26014;SDS011;13793;55.388;37.844;2022-09-27T05:23:17;35.60;;;5.60;;
26014;SDS011;13793;55.388;37.844;2022-09-27T05:25:48;30.57;;;10.47;;
26014;SDS011;13793;55.388;37.844;2022-09-27T05:28:19;14.63;;;9.23;;
26014;SDS011;13793;55.388;37.844;2022-09-27T05:30:53;11.17;;;6.60;;
26014;SDS011;13793;55.388;37.844;2022-09-27T05:33:24;13.43;;;5.03;;
26014;SDS011;13793;55.388;37.844;2022-09-27T05:36:05;14.57;;;5.67;;
26014;SDS011;13793;55.388;37.844;2022-09-27T05:38:37;7.20;;;5.00;;
26014;SDS011;13793;55.388;37.844;2022-09-27T05:41:09;18.97;;;9.53;;
26014;SDS011;13793;55.388;37.844;2022-09-27T05:43:41;14.63;;;8.93;;
26014;SDS011;13793;55.388;37.844;2022-09-27T05:46:13;14.23;;;8.60;;
26014;SDS011;13793;55.388;37.844;2022-09-27T05:48:43;15.17;;;8.83;;
26014;SDS011;13793;55.388;37.844;2022-09-27T05:51:14;14.03;;;9.77;;
26014;SDS011;13793;55.388;37.844;2022-09-27T05:53:46;25.33;;;12.33;;
26014;SDS011;13793;55.388;37.844;2022-09-27T05:56:19;13.57;;;9.10;;
26014;SDS011;13793;55.388;37.844;2022-09-27T05:58:51;15.30;;;7.73;;
26014;SDS011;13793;55.388;37.844;2022-09-27T06:01:22;11.27;;;6.80;;
26014;SDS011;13793;55.388;37.844;2022-09-27T06:04:08;8.77;;;6.20;;
26014;SDS011;13793;55.388;37.844;2022-09-27T06:06:47;9.93;;;7.17;;
26014;SDS011;13793;55.388;37.844;2022-09-27T06:09:18;8.27;;;6.63;;
26014;SDS011;13793;55.388;37.844;2022-09-27T06:11:49;5.47;;;4.87;;
26014;SDS011;13793;55.388;37.844;2022-09-27T06:14:20;5.57;;;4.40;;
26014;SDS011;13793;55.388;37.844;2022-09-27T06:17:02;8.37;;;4.60;;
26014;SDS011;13793;55.388;37.844;2022-09-27T06:19:34;4.90;;;4.40;;
26014;SDS011;13793;55.388;37.844;2022-09-27T06:22:05;5.30;;;4.23;;
26014;SDS011;13793;55.388;37.844;2022-09-27T06:24:40;5.07;;;4.37;;
26014;SDS011;13793;55.388;37.844;2022-09-27T06:27:12;4.27;;;3.80;;
26014;SDS011;13793;55.388;37.844;2022-09-27T06:29:44;3.58;;;3.27;;
26014;SDS011;13793;55.388;37.844;2022-09-27T06:32:17;4.17;;;3.77;;
26014;SDS011;13793;55.388;37.844;2022-09-27T06:34:58;3.80;;;3.20;;
26014;SDS011;13793;55.388;37.844;2022-09-27T06:37:29;3.92;;;3.50;;
26014;SDS011;13793;55.388;37.844;2022-09-27T06:39:59;2.33;;;2.10;;
26014;SDS011;13793;55.388;37.844;2022-09-27T06:42:38;2.55;;;2.35;;
26014;SDS011;13793;55.388;37.844;2022-09-27T06:45:14;2.58;;;2.22;;
26014;SDS011;13793;55.388;37.844;2022-09-27T06:48:06;2.40;;;2.20;;
26014;SDS011;13793;55.388;37.844;2022-09-27T06:50:43;2.50;;;2.12;;
26014;SDS011;13793;55.388;37.844;2022-09-27T06:53:15;2.20;;;2.00;;
26014;SDS011;13793;55.388;37.844;2022-09-27T06:55:48;2.50;;;1.82;;
26014;SDS011;13793;55.388;37.844;2022-09-27T06:58:20;1.77;;;1.60;;
26014;SDS011;13793;55.388;37.844;2022-09-27T07:01:26;2.08;;;1.70;;
26014;SDS011;13793;55.388;37.844;2022-09-27T07:04:09;2.17;;;1.70;;
26014;SDS011;13793;55.388;37.844;2022-09-27T07:06:45;12.25;;;6.60;;
26014;SDS011;13793;55.388;37.844;2022-09-27T07:09:17;7.67;;;5.12;;
26014;SDS011;13793;55.388;37.844;2022-09-27T07:11:48;19.50;;;12.78;;
26014;SDS011;13793;55.388;37.844;2022-09-27T07:14:19;2.42;;;1.90;;
26014;SDS011;13793;55.388;37.844;2022-09-27T07:16:51;2.37;;;1.62;;
26014;SDS011;13793;55.388;37.844;2022-09-27T07:19:21;1.70;;;1.40;;
26014;SDS011;13793;55.388;37.844;2022-09-27T07:21:52;1.37;;;1.20;;
26014;SDS011;13793;55.388;37.844;2022-09-27T07:24:23;3.08;;;2.20;;
26014;SDS011;13793;55.388;37.844;2022-09-27T07:26:55;1.20;;;1.10;;
26014;SDS011;13793;55.388;37.844;2022-09-27T07:29:27;1.00;;;1.00;;
26014;SDS011;13793;55.388;37.844;2022-09-27T07:31:58;1.95;;;1.10;;
26014;SDS011;13793;55.388;37.844;2022-09-27T07:34:28;1.45;;;1.35;;
26014;SDS011;13793;55.388;37.844;2022-09-27T07:37:02;2.25;;;1.50;;
26014;SDS011;13793;55.388;37.844;2022-09-27T07:39:34;1.98;;;1.82;;
26014;SDS011;13793;55.388;37.844;2022-09-27T07:42:05;2.15;;;1.90;;
26014;SDS011;13793;55.388;37.844;2022-09-27T07:44:38;37.40;;;23.18;;
26014;SDS011;13793;55.388;37.844;2022-09-27T07:47:29;12.55;;;9.38;;
26014;SDS011;13793;55.388;37.844;2022-09-27T07:50:02;2.95;;;2.37;;
26014;SDS011;13793;55.388;37.844;2022-09-27T07:52:39;1.67;;;0.95;;
26014;SDS011;13793;55.388;37.844;2022-09-27T07:55:28;0.95;;;0.93;;
26014;SDS011;13793;55.388;37.844;2022-09-27T07:58:17;1.75;;;1.00;;
26014;SDS011;13793;55.388;37.844;2022-09-27T08:00:48;1.50;;;1.27;;
26014;SDS011;13793;55.388;37.844;2022-09-27T08:03:21;1.47;;;1.02;;
26014;SDS011;13793;55.388;37.844;2022-09-27T08:05:51;1.05;;;0.82;;
26014;SDS011;13793;55.388;37.844;2022-09-27T08:08:22;0.80;;;0.80;;
26014;SDS011;13793;55.388;37.844;2022-09-27T08:10:54;1.00;;;0.90;;
26014;SDS011;13793;55.388;37.844;2022-09-27T08:13:26;0.72;;;0.72;;
26014;SDS011;13793;55.388;37.844;2022-09-27T08:16:00;1.27;;;0.80;;
26014;SDS011;13793;55.388;37.844;2022-09-27T08:18:31;0.60;;;0.60;;
26014;SDS011;13793;55.388;37.844;2022-09-27T08:21:04;1.10;;;1.00;;
26014;SDS011;13793;55.388;37.844;2022-09-27T08:23:45;1.17;;;0.90;;
26014;SDS011;13793;55.388;37.844;2022-09-27T08:26:18;0.88;;;0.72;;
26014;SDS011;13793;55.388;37.844;2022-09-27T08:28:59;1.52;;;0.60;;
26014;SDS011;13793;55.388;37.844;2022-09-27T08:31:31;0.98;;;0.70;;
26014;SDS011;13793;55.388;37.844;2022-09-27T08:34:02;1.27;;;0.70;;
26014;SDS011;13793;55.388;37.844;2022-09-27T08:36:33;0.80;;;0.80;;
26014;SDS011;13793;55.388;37.844;2022-09-27T08:39:04;1.10;;;0.80;;
26014;SDS011;13793;55.388;37.844;2022-09-27T08:41:54;0.70;;;0.70;;
26014;SDS011;13793;55.388;37.844;2022-09-27T08:47:16;1.40;;;0.80;;
26014;SDS011;13793;55.388;37.844;2022-09-27T08:49:52;3.02;;;0.95;;
26014;SDS011;13793;55.388;37.844;2022-09-27T08:52:41;2.33;;;1.50;;
26014;SDS011;13793;55.388;37.844;2022-09-27T08:55:24;1.17;;;0.78;;
26014;SDS011;13793;55.388;37.844;2022-09-27T08:57:58;0.95;;;0.60;;
26014;SDS011;13793;55.388;37.844;2022-09-27T09:00:29;1.00;;;0.55;;
26014;SDS011;13793;55.388;37.844;2022-09-27T09:03:01;0.68;;;0.60;;
26014;SDS011;13793;55.388;37.844;2022-09-27T09:05:33;1.92;;;0.68;;
26014;SDS011;13793;55.388;37.844;2022-09-27T09:11:43;2.98;;;0.62;;
26014;SDS011;13793;55.388;37.844;2022-09-27T09:14:06;0.50;;;0.40;;
26014;SDS011;13793;55.388;37.844;2022-09-27T09:16:59;0.42;;;0.42;;
26014;SDS011;13793;55.388;37.844;2022-09-27T09:19:43;3.98;;;2.47;;
26014;SDS011;13793;55.388;37.844;2022-09-27T09:22:47;2.47;;;2.08;;
26014;SDS011;13793;55.388;37.844;2022-09-27T09:25:27;1.60;;;1.27;;
26014;SDS011;13793;55.388;37.844;2022-09-27T09:31:07;1.10;;;0.68;;
26014;SDS011;13793;55.388;37.844;2022-09-27T09:33:39;1.07;;;0.70;;
26014;SDS011;13793;55.388;37.844;2022-09-27T09:42:03;1.90;;;0.60;;
26014;SDS011;13793;55.388;37.844;2022-09-27T09:44:40;0.72;;;0.70;;
26014;SDS011;13793;55.388;37.844;2022-09-27T09:47:34;5.33;;;4.92;;
26014;SDS011;13793;55.388;37.844;2022-09-27T09:50:15;1.50;;;0.72;;
26014;SDS011;13793;55.388;37.844;2022-09-27T09:52:47;1.15;;;0.90;;
26014;SDS011;13793;55.388;37.844;2022-09-27T10:00:57;5.45;;;2.98;;
26014;SDS011;13793;55.388;37.844;2022-09-27T10:03:29;27.77;;;14.87;;
26014;SDS011;13793;55.388;37.844;2022-09-27T10:06:00;20.75;;;18.90;;
26014;SDS011;13793;55.388;37.844;2022-09-27T10:08:31;15.65;;;14.05;;
26014;SDS011;13793;55.388;37.844;2022-09-27T10:11:04;21.65;;;16.48;;
26014;SDS011;13793;55.388;37.844;2022-09-27T10:13:37;7.65;;;6.35;;
26014;SDS011;13793;55.388;37.844;2022-09-27T10:16:09;5.97;;;5.28;;
26014;SDS011;13793;55.388;37.844;2022-09-27T10:18:41;3.35;;;2.77;;
26014;SDS011;13793;55.388;37.844;2022-09-27T10:21:14;1.98;;;1.55;;
26014;SDS011;13793;55.388;37.844;2022-09-27T10:24:01;6.50;;;4.42;;
26014;SDS011;13793;55.388;37.844;2022-09-27T10:26:53;2.52;;;1.00;;
26014;SDS011;13793;55.388;37.844;2022-09-27T10:29:29;1.32;;;0.95;;
26014;SDS011;13793;55.388;37.844;2022-09-27T10:32:01;1.87;;;0.90;;
26014;SDS011;13793;55.388;37.844;2022-09-27T10:34:34;7.72;;;4.25;;
26014;SDS011;13793;55.388;37.844;2022-09-27T10:39:46;2.37;;;1.30;;
26014;SDS011;13793;55.388;37.844;2022-09-27T10:42:19;2.62;;;1.27;;
26014;SDS011;13793;55.388;37.844;2022-09-27T10:44:51;2.20;;;1.07;;
26014;SDS011;13793;55.388;37.844;2022-09-27T10:47:23;2.35;;;0.90;;
26014;SDS011;13793;55.388;37.844;2022-09-27T10:50:10;2.47;;;1.60;;
26014;SDS011;13793;55.388;37.844;2022-09-27T10:52:38;1.90;;;1.40;;
26014;SDS011;13793;55.388;37.844;2022-09-27T10:55:22;1.77;;;1.40;;
26014;SDS011;13793;55.388;37.844;2022-09-27T10:57:54;1.52;;;1.32;;
26014;SDS011;13793;55.388;37.844;2022-09-27T11:00:25;2.02;;;1.40;;
26014;SDS011;13793;55.388;37.844;2022-09-27T11:03:05;2.30;;;1.50;;
26014;SDS011;13793;55.388;37.844;2022-09-27T11:05:39;2.67;;;1.62;;
26014;SDS011;13793;55.388;37.844;2022-09-27T11:11:03;2.75;;;1.50;;
26014;SDS011;13793;55.388;37.844;2022-09-27T11:13:38;2.00;;;1.62;;
26014;SDS011;13793;55.388;37.844;2022-09-27T11:19:17;2.15;;;1.42;;
26014;SDS011;13793;55.388;37.844;2022-09-27T11:28:02;3.12;;;1.90;;
26014;SDS011;13793;55.388;37.844;2022-09-27T11:30:19;4.47;;;2.20;;
26014;SDS011;13793;55.388;37.844;2022-09-27T11:41:52;4.28;;;3.77;;
26014;SDS011;13793;55.388;37.844;2022-09-27T11:47:34;2.98;;;2.55;;
26014;SDS011;13793;55.388;37.844;2022-09-27T11:50:17;4.58;;;2.70;;
26014;SDS011;13793;55.388;37.844;2022-09-27T11:53:14;5.58;;;2.55;;
26014;SDS011;13793;55.388;37.844;2022-09-27T12:09:43;5.33;;;3.67;;
26014;SDS011;13793;55.388;37.844;2022-09-27T12:12:21;4.45;;;3.12;;
26014;SDS011;13793;55.388;37.844;2022-09-27T12:14:51;4.20;;;3.25;;
26014;SDS011;13793;55.388;37.844;2022-09-27T12:17:27;4.97;;;2.83;;
26014;SDS011;13793;55.388;37.844;2022-09-27T12:20:02;4.22;;;2.60;;
26014;SDS011;13793;55.388;37.844;2022-09-27T12:22:39;4.10;;;2.90;;
26014;SDS011;13793;55.388;37.844;2022-09-27T12:25:14;5.83;;;2.60;;
26014;SDS011;13793;55.388;37.844;2022-09-27T12:27:55;5.17;;;3.20;;
26014;SDS011;13793;55.388;37.844;2022-09-27T12:30:27;6.22;;;2.72;;
26014;SDS011;13793;55.388;37.844;2022-09-27T12:33:18;4.47;;;2.42;;
26014;SDS011;13793;55.388;37.844;2022-09-27T12:35:57;3.77;;;2.50;;
26014;SDS011;13793;55.388;37.844;2022-09-27T12:41:10;6.90;;;2.40;;
26014;SDS011;13793;55.388;37.844;2022-09-27T12:43:44;5.58;;;2.67;;
26014;SDS011;13793;55.388;37.844;2022-09-27T12:46:40;5.78;;;2.45;;
26014;SDS011;13793;55.388;37.844;2022-09-27T12:49:23;4.08;;;2.40;;
26014;SDS011;13793;55.388;37.844;2022-09-27T12:51:57;6.33;;;2.45;;
26014;SDS011;13793;55.388;37.844;2022-09-27T12:54:59;4.33;;;2.10;;
26014;SDS011;13793;55.388;37.844;2022-09-27T12:57:48;3.77;;;2.08;;
26014;SDS011;13793;55.388;37.844;2022-09-27T13:00:22;4.30;;;2.62;;
26014;SDS011;13793;55.388;37.844;2022-09-27T13:03:33;4.03;;;2.27;;
26014;SDS011;13793;55.388;37.844;2022-09-27T13:08:44;3.30;;;2.20;;
26014;SDS011;13793;55.388;37.844;2022-09-27T13:14:02;5.08;;;2.60;;
26014;SDS011;13793;55.388;37.844;2022-09-27T13:16:42;6.83;;;2.50;;
26014;SDS011;13793;55.388;37.844;2022-09-27T13:31:08;9.05;;;2.80;;
26014;SDS011;13793;55.388;37.844;2022-09-27T13:33:49;3.98;;;2.33;;
26014;SDS011;13793;55.388;37.844;2022-09-27T13:42:00;6.60;;;4.05;;
26014;SDS011;13793;55.388;37.844;2022-09-27T13:49:47;11.17;;;6.17;;
26014;SDS011;13793;55.388;37.844;2022-09-27T14:00:52;14.47;;;7.83;;
26014;SDS011;13793;55.388;37.844;2022-09-27T14:03:29;13.10;;;6.35;;
26014;SDS011;13793;55.388;37.844;2022-09-27T14:06:05;6.85;;;5.12;;
26014;SDS011;13793;55.388;37.844;2022-09-27T14:08:57;8.00;;;5.08;;
26014;SDS011;13793;55.388;37.844;2022-09-27T14:11:17;10.10;;;6.50;;
26014;SDS011;13793;55.388;37.844;2022-09-27T14:13:56;11.55;;;6.17;;
26014;SDS011;13793;55.388;37.844;2022-09-27T14:16:30;8.50;;;4.83;;
26014;SDS011;13793;55.388;37.844;2022-09-27T14:19:03;6.97;;;4.37;;
26014;SDS011;13793;55.388;37.844;2022-09-27T14:21:37;7.30;;;3.75;;
26014;SDS011;13793;55.388;37.844;2022-09-27T14:27:11;5.58;;;3.90;;
26014;SDS011;13793;55.388;37.844;2022-09-27T14:29:51;6.75;;;4.58;;
26014;SDS011;13793;55.388;37.844;2022-09-27T14:32:23;7.35;;;4.03;;
26014;SDS011;13793;55.388;37.844;2022-09-27T14:38:09;4.25;;;2.52;;
26014;SDS011;13793;55.388;37.844;2022-09-27T14:41:01;6.85;;;3.90;;
26014;SDS011;13793;55.388;37.844;2022-09-27T14:43:23;7.10;;;4.05;;
26014;SDS011;13793;55.388;37.844;2022-09-27T14:45:57;7.30;;;4.40;;
26014;SDS011;13793;55.388;37.844;2022-09-27T14:48:30;8.73;;;4.62;;
26014;SDS011;13793;55.388;37.844;2022-09-27T14:53:42;8.58;;;4.70;;
26014;SDS011;13793;55.388;37.844;2022-09-27T14:56:32;11.28;;;4.55;;
26014;SDS011;13793;55.388;37.844;2022-09-27T14:59:24;6.85;;;4.47;;
26014;SDS011;13793;55.388;37.844;2022-09-27T15:02:03;7.05;;;4.05;;
26014;SDS011;13793;55.388;37.844;2022-09-27T15:04:35;6.90;;;4.42;;
26014;SDS011;13793;55.388;37.844;2022-09-27T15:07:07;8.28;;;4.40;;
26014;SDS011;13793;55.388;37.844;2022-09-27T15:09:37;5.83;;;4.35;;
26014;SDS011;13793;55.388;37.844;2022-09-27T15:12:09;6.58;;;3.87;;
26014;SDS011;13793;55.388;37.844;2022-09-27T15:14:42;6.37;;;4.28;;
26014;SDS011;13793;55.388;37.844;2022-09-27T15:17:19;6.15;;;4.10;;
26014;SDS011;13793;55.388;37.844;2022-09-27T15:19:57;5.67;;;3.60;;
26014;SDS011;13793;55.388;37.844;2022-09-27T15:22:43;6.95;;;3.85;;
26014;SDS011;13793;55.388;37.844;2022-09-27T15:25:22;5.55;;;3.45;;
26014;SDS011;13793;55.388;37.844;2022-09-27T15:27:52;5.80;;;3.80;;
26014;SDS011;13793;55.388;37.844;2022-09-27T15:30:27;8.88;;;4.60;;
26014;SDS011;13793;55.388;37.844;2022-09-27T15:32:56;9.35;;;4.95;;
26014;SDS011;13793;55.388;37.844;2022-09-27T15:35:28;5.85;;;5.00;;
26014;SDS011;13793;55.388;37.844;2022-09-27T15:41:10;6.75;;;3.95;;
26014;SDS011;13793;55.388;37.844;2022-09-27T15:43:50;6.95;;;4.85;;
26014;SDS011;13793;55.388;37.844;2022-09-27T15:46:33;9.33;;;6.05;;
26014;SDS011;13793;55.388;37.844;2022-09-27T15:52:02;8.00;;;6.03;;
26014;SDS011;13793;55.388;37.844;2022-09-27T15:54:33;9.83;;;5.08;;
26014;SDS011;13793;55.388;37.844;2022-09-27T15:57:04;7.05;;;5.20;;
26014;SDS011;13793;55.388;37.844;2022-09-27T15:59:35;12.00;;;8.05;;
26014;SDS011;13793;55.388;37.844;2022-09-27T16:02:11;9.28;;;6.42;;
26014;SDS011;13793;55.388;37.844;2022-09-27T16:04:43;8.20;;;6.25;;
26014;SDS011;13793;55.388;37.844;2022-09-27T16:07:14;11.68;;;6.47;;
26014;SDS011;13793;55.388;37.844;2022-09-27T16:09:45;10.35;;;6.22;;
26014;SDS011;13793;55.388;37.844;2022-09-27T16:12:17;7.85;;;6.12;;
26014;SDS011;13793;55.388;37.844;2022-09-27T16:14:47;12.37;;;8.25;;
26014;SDS011;13793;55.388;37.844;2022-09-27T16:17:18;23.10;;;17.95;;
26014;SDS011;13793;55.388;37.844;2022-09-27T16:19:48;9.43;;;6.80;;
26014;SDS011;13793;55.388;37.844;2022-09-27T16:22:20;11.30;;;5.72;;
26014;SDS011;13793;55.388;37.844;2022-09-27T16:24:50;8.88;;;6.30;;
26014;SDS011;13793;55.388;37.844;2022-09-27T16:27:25;14.53;;;5.95;;
26014;SDS011;13793;55.388;37.844;2022-09-27T16:29:56;10.35;;;5.80;;
26014;SDS011;13793;55.388;37.844;2022-09-27T16:32:29;10.50;;;6.28;;
26014;SDS011;13793;55.388;37.844;2022-09-27T16:35:00;13.60;;;6.70;;
26014;SDS011;13793;55.388;37.844;2022-09-27T16:37:32;8.10;;;5.78;;
26014;SDS011;13793;55.388;37.844;2022-09-27T16:40:03;6.50;;;4.67;;
26014;SDS011;13793;55.388;37.844;2022-09-27T16:42:36;5.28;;;3.75;;
26014;SDS011;13793;55.388;37.844;2022-09-27T16:45:07;9.23;;;8.25;;
26014;SDS011;13793;55.388;37.844;2022-09-27T16:47:38;11.78;;;8.33;;
26014;SDS011;13793;55.388;37.844;2022-09-27T16:50:09;9.43;;;8.53;;
26014;SDS011;13793;55.388;37.844;2022-09-27T16:52:59;9.03;;;7.60;;
26014;SDS011;13793;55.388;37.844;2022-09-27T16:55:29;6.05;;;4.62;;
26014;SDS011;13793;55.388;37.844;2022-09-27T16:58:00;6.87;;;5.12;;
26014;SDS011;13793;55.388;37.844;2022-09-27T17:00:32;8.88;;;5.72;;
26014;SDS011;13793;55.388;37.844;2022-09-27T17:03:03;6.58;;;4.00;;
26014;SDS011;13793;55.388;37.844;2022-09-27T17:05:34;6.30;;;4.20;;
26014;SDS011;13793;55.388;37.844;2022-09-27T17:08:05;5.78;;;3.85;;
26014;SDS011;13793;55.388;37.844;2022-09-27T17:10:35;7.40;;;4.50;;
26014;SDS011;13793;55.388;37.844;2022-09-27T17:13:06;6.45;;;4.40;;
26014;SDS011;13793;55.388;37.844;2022-09-27T17:15:36;6.40;;;4.08;;
26014;SDS011;13793;55.388;37.844;2022-09-27T17:18:08;6.27;;;4.37;;
26014;SDS011;13793;55.388;37.844;2022-09-27T17:20:40;8.30;;;4.97;;
26014;SDS011;13793;55.388;37.844;2022-09-27T17:23:11;11.30;;;5.33;;
26014;SDS011;13793;55.388;37.844;2022-09-27T17:25:42;7.70;;;5.93;;
26014;SDS011;13793;55.388;37.844;2022-09-27T17:28:12;9.60;;;5.50;;
26014;SDS011;13793;55.388;37.844;2022-09-27T17:30:43;7.97;;;5.80;;
26014;SDS011;13793;55.388;37.844;2022-09-27T17:33:13;7.53;;;5.33;;
26014;SDS011;13793;55.388;37.844;2022-09-27T17:35:44;6.77;;;5.40;;
26014;SDS011;13793;55.388;37.844;2022-09-27T17:38:16;7.60;;;5.13;;
26014;SDS011;13793;55.388;37.844;2022-09-27T17:40:46;6.03;;;4.67;;
26014;SDS011;13793;55.388;37.844;2022-09-27T17:43:16;7.47;;;4.83;;
26014;SDS011;13793;55.388;37.844;2022-09-27T17:45:47;8.63;;;5.13;;
26014;SDS011;13793;55.388;37.844;2022-09-27T17:48:18;7.80;;;5.00;;
26014;SDS011;13793;55.388;37.844;2022-09-27T17:51:06;8.60;;;6.20;;